Time;durP1;ratioP1;P1;durP2;ratioP2;P2;SDS_P1;SDS_P2;PMS_P1;PMS_P2;Temp;Humidity;BMP_temperature;BMP_pressure;BME280_temperature;BME280_humidity;BME280_pressure;Samples;Min_cycle;Max_cycle;Signal;HPM_P1;HPM_P2
2021/10/05 11:16:14;;;;;;;10.65;6.10;;;;;;;42.57;15.23;99473.34;5007663;28;105880;-66
2021/10/05 11:18:39;;;;;;;7.13;5.38;;;;;;;42.36;15.43;99469.38;5004035;28;105935;-68
2021/10/05 11:21:09;;;;;;;9.48;5.28;;;;;;;42.61;15.53;99455.31;5003215;28;105815;-67
2021/10/05 11:23:43;;;;;;;12.45;5.75;;;;;;;43.12;15.12;99441.06;5004017;28;106060;-65
2021/10/05 11:26:08;;;;;;;8.60;5.10;;;;;;;43.24;15.10;99437.78;5004228;28;106427;-64
2021/10/05 11:28:34;;;;;;;8.75;5.25;;;;;;;43.53;14.99;99434.00;5005306;28;106124;-65
2021/10/05 11:31:03;;;;;;;9.93;5.20;;;;;;;43.64;14.24;99445.91;5005103;28;106252;-65
2021/10/05 11:33:32;;;;;;;9.68;5.20;;;;;;;44.07;14.13;99451.09;5004724;28;105739;-65
2021/10/05 11:36:01;;;;;;;8.77;5.35;;;;;;;44.68;13.56;99424.34;5004923;28;105965;-66
2021/10/05 11:38:42;;;;;;;10.55;5.38;;;;;;;45.74;13.22;99439.19;5005823;28;105921;-65
2021/10/05 11:41:08;;;;;;;7.63;4.40;;;;;;;45.96;12.68;99430.38;5005184;28;106114;-65
2021/10/05 11:43:42;;;;;;;8.63;4.82;;;;;;;45.65;12.38;99427.69;4988571;28;106546;-65
2021/10/05 11:46:23;;;;;;;7.22;4.05;;;;;;;45.83;12.83;99432.19;4984699;28;106120;-63
2021/10/05 11:48:51;;;;;;;11.35;3.58;;;;;;;45.24;11.54;99428.75;4990128;28;106275;-62
2021/10/05 11:51:19;;;;;;;5.45;4.10;;;;;;;44.45;12.02;99451.06;4984872;28;106145;-64
2021/10/05 11:53:46;;;;;;;9.60;3.70;;;;;;;43.50;12.04;99432.81;4984423;28;106694;-65
2021/10/05 11:56:14;;;;;;;9.90;3.90;;;;;;;42.85;12.87;99418.41;4982591;28;106106;-63
2021/10/05 11:58:44;;;;;;;7.17;3.67;;;;;;;42.71;12.40;99408.88;4989177;28;106754;-65
2021/10/05 12:01:28;;;;;;;6.90;3.70;;;;;;;43.16;12.96;99408.22;4984680;28;106421;-66
2021/10/05 12:03:58;;;;;;;21.30;4.03;;;;;;;43.15;12.26;99397.44;4984391;28;106885;-65
2021/10/05 12:06:32;;;;;;;8.40;3.90;;;;;;;42.32;13.12;99421.03;4984139;28;106065;-73
2021/10/05 12:08:59;;;;;;;5.85;3.22;;;;;;;41.92;13.49;99384.75;4985192;28;106159;-62
2021/10/05 12:11:44;;;;;;;12.30;3.60;;;;;;;41.64;13.42;99416.38;4984384;28;106042;-72
2021/10/05 12:14:10;;;;;;;7.65;3.33;;;;;;;41.36;13.71;99434.72;4982643;28;107044;-63
2021/10/05 12:16:38;;;;;;;7.13;3.70;;;;;;;40.98;13.94;99391.56;4983434;28;106139;-62
2021/10/05 12:19:04;;;;;;;8.93;3.85;;;;;;;40.90;14.02;99413.06;4984566;28;105901;-60
2021/10/05 12:21:30;;;;;;;8.73;3.80;;;;;;;40.54;14.32;99404.59;4984008;28;106244;-62
2021/10/05 12:23:57;;;;;;;16.98;4.78;;;;;;;40.16;14.46;99407.59;4983879;28;106094;-60
2021/10/05 12:26:23;;;;;;;13.70;4.93;;;;;;;39.69;14.89;99407.28;4977420;28;106005;-60
2021/10/05 12:29:06;;;;;;;8.15;3.88;;;;;;;39.36;15.35;99436.84;4971857;28;106378;-61
2021/10/05 12:31:32;;;;;;;6.25;3.88;;;;;;;39.41;15.51;99403.06;4971331;28;106415;-61
2021/10/05 12:34:06;;;;;;;6.47;3.40;;;;;;;39.92;15.09;99390.31;4969968;28;106140;-62
2021/10/05 12:36:34;;;;;;;8.77;3.50;;;;;;;39.29;15.62;99400.59;4970648;28;105913;-61
2021/10/05 12:39:14;;;;;;;9.90;4.10;;;;;;;39.60;15.22;99398.44;4975710;28;106280;-63
2021/10/05 12:41:41;;;;;;;8.57;3.53;;;;;;;36.23;17.99;99413.22;4990591;28;106246;-68
2021/10/05 12:44:17;;;;;;;7.40;4.13;;;;;;;36.54;18.11;99394.88;4989998;28;106096;-64
2021/10/05 12:46:58;;;;;;;7.43;3.95;;;;;;;37.72;17.02;99382.31;4975093;28;106063;-62
2021/10/05 12:49:24;;;;;;;10.07;4.25;;;;;;;38.72;16.61;99373.75;4971473;28;106252;-62
2021/10/05 12:51:51;;;;;;;16.42;5.13;;;;;;;39.06;16.03;99368.13;4979069;28;106024;-62
2021/10/05 12:54:17;;;;;;;9.02;4.68;;;;;;;39.74;15.83;99376.25;4989992;28;106668;-64
2021/10/05 12:56:45;;;;;;;8.60;4.30;;;;;;;40.20;15.47;99396.44;4990477;28;106289;-65
2021/10/05 12:59:11;;;;;;;9.13;4.40;;;;;;;40.08;15.58;99389.22;4990712;28;106222;-63
2021/10/05 13:01:37;;;;;;;10.95;4.40;;;;;;;39.52;15.72;99380.06;4990143;28;106220;-63
2021/10/05 20:45:33;;;;;;;10.80;5.72;;;;;;;17.67;53.77;99534.81;5006837;28;106256;-65
2021/10/05 20:47:58;;;;;;;9.88;6.10;;;;;;;17.69;53.96;99541.63;5003864;28;106322;-67
2021/10/05 20:50:24;;;;;;;9.52;5.97;;;;;;;17.72;54.63;99535.75;5005715;28;106202;-66
2021/10/05 20:52:49;;;;;;;10.88;5.63;;;;;;;17.77;54.68;99543.97;5005288;28;106206;-66
2021/10/05 20:55:14;;;;;;;10.23;5.78;;;;;;;17.83;54.52;99547.59;5004578;28;106033;-67
2021/10/05 20:57:40;;;;;;;10.45;6.20;;;;;;;17.89;54.42;99538.59;5005965;28;106051;-68
2021/10/05 21:00:07;;;;;;;15.30;6.18;;;;;;;17.95;54.17;99544.13;5005277;28;106244;-67
2021/10/05 21:02:32;;;;;;;7.88;5.65;;;;;;;18.01;54.12;99543.19;5005235;28;105969;-67
2021/10/05 21:04:57;;;;;;;10.77;5.97;;;;;;;18.06;54.20;99548.69;5005089;28;106134;-67
2021/10/05 21:07:23;;;;;;;10.23;6.18;;;;;;;18.11;54.10;99551.47;5006088;28;105876;-67
2021/10/05 21:09:50;;;;;;;10.50;6.18;;;;;;;18.16;53.85;99546.22;5005599;28;106283;-67
2021/10/05 21:12:16;;;;;;;8.65;5.63;;;;;;;18.19;53.62;99548.47;5004995;28;106676;-67
2021/10/05 21:14:41;;;;;;;10.45;5.68;;;;;;;18.24;53.67;99548.56;5004591;28;106007;-67
2021/10/05 21:17:07;;;;;;;9.77;5.55;;;;;;;18.27;53.54;99552.66;5005855;28;106008;-67
2021/10/05 21:19:32;;;;;;;10.02;6.43;;;;;;;18.30;53.22;99556.75;5005082;28;105977;-67
2021/10/05 21:21:58;;;;;;;22.92;7.30;;;;;;;18.30;53.06;99554.88;5005088;28;106021;-67
2021/10/05 21:24:23;;;;;;;14.02;5.65;;;;;;;18.31;52.81;99558.41;5004700;28;106344;-68
2021/10/05 21:26:48;;;;;;;12.82;5.35;;;;;;;18.31;52.68;99556.50;5005783;28;106018;-68
2021/10/05 21:29:16;;;;;;;12.40;5.38;;;;;;;18.31;52.61;99566.50;5005254;28;106231;-67
2021/10/05 21:31:41;;;;;;;9.27;5.15;;;;;;;18.30;52.56;99562.94;5004681;28;106017;-67
2021/10/05 21:34:06;;;;;;;12.75;5.13;;;;;;;18.33;52.20;99573.28;5004418;28;106302;-67
2021/10/05 21:36:32;;;;;;;6.88;5.15;;;;;;;18.34;52.33;99574.91;5005098;28;105920;-67
2021/10/05 21:38:57;;;;;;;8.95;4.97;;;;;;;18.35;51.69;99570.34;5004785;28;106155;-67
2021/10/05 21:41:22;;;;;;;8.07;4.88;;;;;;;18.36;51.71;99572.81;5004298;28;107206;-67
2021/10/05 21:43:48;;;;;;;8.50;5.28;;;;;;;18.37;51.42;99568.22;5003959;28;106068;-67
2021/10/05 21:46:13;;;;;;;9.43;4.93;;;;;;;18.34;51.32;99574.09;5005383;28;106040;-67
2021/10/05 21:48:38;;;;;;;10.50;5.88;;;;;;;18.33;51.06;99575.16;5004924;28;105930;-67
2021/10/05 21:51:04;;;;;;;13.95;4.72;;;;;;;18.30;51.10;99579.13;5004303;28;106699;-67
2021/10/05 21:53:30;;;;;;;8.85;5.00;;;;;;;18.27;51.21;99583.16;5004427;28;106510;-67
2021/10/05 21:55:56;;;;;;;15.65;5.18;;;;;;;18.23;51.12;99581.97;4997331;28;105917;-67
2021/10/05 21:58:22;;;;;;;8.90;5.47;;;;;;;18.21;51.19;99586.78;4991333;28;106218;-67
2021/10/05 22:00:47;;;;;;;8.93;5.03;;;;;;;18.22;51.07;99588.41;4991021;28;106006;-67
2021/10/05 22:03:12;;;;;;;9.85;5.43;;;;;;;18.22;51.11;99593.81;4990923;28;106324;-67
2021/10/05 22:05:38;;;;;;;13.02;5.10;;;;;;;18.22;51.06;99595.66;4991814;28;105889;-67
2021/10/05 22:08:04;;;;;;;11.77;5.50;;;;;;;18.26;51.06;99607.63;4990591;28;106195;-66
2021/10/05 22:10:29;;;;;;;9.38;5.47;;;;;;;18.28;50.89;99616.31;4990776;28;106649;-67
2021/10/05 22:12:55;;;;;;;6.85;5.10;;;;;;;18.31;50.78;99617.72;4990131;28;105941;-66
2021/10/05 22:15:21;;;;;;;10.32;4.85;;;;;;;18.30;50.72;99622.28;4991432;28;105880;-67
2021/10/05 22:17:46;;;;;;;7.88;4.60;;;;;;;18.29;50.59;99620.66;4991007;28;106172;-67
2021/10/05 22:20:12;;;;;;;10.13;4.90;;;;;;;18.27;50.69;99628.97;4990565;28;105943;-66
2021/10/05 22:22:41;;;;;;;9.27;5.20;;;;;;;18.26;50.63;99627.34;4990626;28;105954;-67
2021/10/05 22:25:07;;;;;;;8.52;4.82;;;;;;;18.26;50.64;99631.88;4991200;28;106067;-67
2021/10/05 22:27:36;;;;;;;7.40;4.95;;;;;;;18.25;50.48;99639.16;4990681;28;106209;-66
2021/10/05 22:30:05;;;;;;;9.70;5.20;;;;;;;18.23;50.58;99641.28;4990385;28;106251;-66
2021/10/05 22:32:30;;;;;;;9.35;5.30;;;;;;;18.22;50.49;99646.88;4990344;28;106272;-66
2021/10/05 22:34:59;;;;;;;10.73;8.25;;;;;;;18.20;50.35;99649.81;4991254;28;106204;-66
2021/10/05 22:37:30;;;;;;;7.63;5.63;;;;;;;18.16;50.62;99645.94;4990841;28;106254;-65
2021/10/05 22:39:56;;;;;;;8.30;4.78;;;;;;;18.12;50.80;99644.78;4990332;28;105992;-66
2021/10/05 22:42:21;;;;;;;10.05;5.25;;;;;;;18.09;50.67;99642.56;4990452;28;106041;-66
2021/10/05 22:44:46;;;;;;;11.10;4.70;;;;;;;18.05;50.70;99636.81;4990576;28;106125;-66
2021/10/05 22:47:12;;;;;;;9.75;4.75;;;;;;;18.04;50.97;99640.56;4990786;28;106244;-67
2021/10/05 22:49:38;;;;;;;8.65;5.72;;;;;;;18.02;50.81;99647.25;4989953;28;106253;-66
2021/10/05 22:52:03;;;;;;;9.43;5.38;;;;;;;18.01;51.05;99648.28;4990311;28;105886;-66
2021/10/05 22:54:29;;;;;;;8.23;5.05;;;;;;;18.02;51.12;99644.56;4991124;28;105854;-66
2021/10/05 22:56:54;;;;;;;10.38;5.45;;;;;;;18.03;51.01;99654.25;4990584;28;106528;-66
2021/10/05 22:59:20;;;;;;;8.43;5.32;;;;;;;18.04;50.92;99655.91;4989901;28;107340;-66
2021/10/05 23:01:47;;;;;;;9.73;5.15;;;;;;;18.04;50.92;99661.28;4990144;28;105831;-66
2021/10/05 23:04:12;;;;;;;10.00;5.38;;;;;;;18.04;50.75;99666.69;4990903;28;106046;-66
2021/10/05 23:06:38;;;;;;;7.43;4.90;;;;;;;18.04;50.93;99662.13;4989641;28;105876;-66
2021/10/05 23:09:03;;;;;;;11.45;5.57;;;;;;;18.04;50.84;99664.81;4989394;28;106322;-66
2021/10/05 23:11:28;;;;;;;8.13;5.70;;;;;;;18.02;50.83;99660.72;4989718;28;106267;-66
2021/10/05 23:13:53;;;;;;;8.85;5.15;;;;;;;18.00;50.88;99660.13;4990562;28;105899;-65
2021/10/05 23:16:19;;;;;;;16.92;6.10;;;;;;;17.98;50.87;99662.22;4989056;28;106290;-66
2021/10/05 23:18:44;;;;;;;10.63;5.32;;;;;;;17.95;50.82;99662.69;4990093;28;106826;-65
2021/10/05 23:21:10;;;;;;;15.63;6.10;;;;;;;17.91;51.08;99673.94;4989825;28;106023;-66
2021/10/05 23:23:35;;;;;;;8.32;5.45;;;;;;;17.87;51.28;99666.50;4990492;28;106277;-66
2021/10/05 23:26:00;;;;;;;6.70;5.03;;;;;;;17.84;51.29;99667.00;4990107;28;106104;-66
2021/10/05 23:28:26;;;;;;;13.00;5.05;;;;;;;17.82;51.26;99688.75;4989588;28;106808;-66
2021/10/05 23:30:52;;;;;;;11.32;5.63;;;;;;;17.79;51.38;99680.31;4989636;28;107684;-67
2021/10/05 23:33:17;;;;;;;9.15;5.60;;;;;;;17.77;51.39;99688.63;4990214;28;105940;-65
2021/10/05 23:35:42;;;;;;;8.75;5.60;;;;;;;17.77;51.72;99677.88;4989889;28;106391;-65
2021/10/05 23:38:08;;;;;;;11.32;7.00;;;;;;;17.79;51.69;99678.44;4989465;28;106094;-67
2021/10/05 23:40:33;;;;;;;10.57;6.30;;;;;;;17.80;51.90;99663.09;4989242;28;105903;-67
2021/10/05 23:42:58;;;;;;;9.60;5.53;;;;;;;17.80;52.06;99673.84;4990274;28;106382;-66
2021/10/05 23:45:24;;;;;;;8.00;5.50;;;;;;;17.80;52.14;99677.41;4989527;28;105934;-67
2021/10/05 23:47:49;;;;;;;10.73;5.32;;;;;;;17.80;52.48;99676.56;4989237;28;105942;-66
2021/10/05 23:50:14;;;;;;;11.98;5.78;;;;;;;17.78;52.65;99674.09;4989385;28;106247;-66
2021/10/05 23:52:40;;;;;;;13.43;6.22;;;;;;;17.76;53.00;99668.94;4990268;28;105935;-66
2021/10/05 23:55:06;;;;;;;11.18;5.70;;;;;;;17.77;53.13;99681.38;4989372;28;106268;-66
2021/10/05 23:57:31;;;;;;;9.68;5.97;;;;;;;17.77;53.38;99677.88;4989229;28;105972;-66
2021/10/05 23:59:56;;;;;;;8.43;5.82;;;;;;;17.77;53.76;99677.88;4988917;28;106448;-66
